Ogdensburg, NY (13669)

11:39 PM EST on February 07, 2016 (GMT -0500)
2nd ward | | Change Station
CLOSE
Current Station
Personal Weather Station
Location: Ogdensburg, NY
Elevation: 292 ft
Nearby Weather Stations

Elev 292 ft 44.69 °N, 75.50 °W | Updated 13 minutes ago

Overcast
Overcast
18.3 °F
Feels Like 10 °F
N
5.8
Wind Variable Wind from East

Today
High -- | Low -- °F
--% Chance of Precip.
Yesterday
High -- | Low -- °F
Precip. -- in
Pressure 30.11 in
Visibility 10.0 miles
Clouds Overcast 12000 ft
Windchill 10 °F
Dew Point 9 °F
Humidity 67%
Rainfall 0.00 in
Snow Depth Not available.
7:14 AM 5:18 PM
Waning Crescent, 0% visible
METAR KMSS 080353Z AUTO 06018KT 10SM OVC120 M08/M16 A3008 RMK AO2 SLP194 T10831156
Pressure 30.11 in
Visibility 10.0 miles
Clouds Overcast 12000 ft
Windchill 10 °F
Dew Point 9 °F
Humidity 67%
Rainfall 0.00 in
Snow Depth Not available.
7:14 AM 5:18 PM
Waning Crescent, 0% visible
METAR KMSS 080353Z AUTO 06018KT 10SM OVC120 M08/M16 A3008 RMK AO2 SLP194 T10831156

10-Day Weather Forecast

Almanac

Astronomy

Feb. 07, 2016 Rise Set
Actual Time
Civil Twilight
Nautical Twilight
Astronomical Twilight
Moon
Length of Visible Light
Length of Day
Tomorrow will be .
, % of the Moon is Illuminated

Today's Extremes

State Highs State Lows

Community

WunderPhotos

Upload Photos

1,891,382 photos uploaded!

WunderBlog® & News

Nearby

Air Quality

  Air Quality AQ Index Pollutant
Not available.

Snow Depth

Station Depth Elevation

Earthquake Activity

City Distance Mag. Time & Date
Minimum magnitude displayed is 2.5.

Coastal Water Temperatures

Place Temperature

Stations

Nearby Weather Stations

Station Location Temp. Windchill Dew Point Humidity Wind Precip. Elev Updated Type
                   

Watches & Warnings

There are currently no watches in effect.